Terminal Aerodrome Forecast
Issued by NWS

Home | Current Version | Previous Version | Text Only | Print | Product List | Glossary On
Versions: 1 2 3 4 5 6 7 8 9 10 11 12 13 14 15 16 17 18 19 20
000
FTUS41 KPHI 171700
TAFPNE
TAF
KPNE 171720Z 1718/1818 11010G16KT P6SM SCT040
      TEMPO 1718/1722 BKN040
     FM180200 07008KT P6SM BKN030
     FM180800 05005KT P6SM BKN020
     FM181400 09007KT P6SM SCT030=

USA.gov is the U.S. government's official web portal to all federal, state and local government web resources and services.